Time;durP1;ratioP1;P1;durP2;ratioP2;P2;SDS_P1;SDS_P2;PMS_P1;PMS_P2;Temp;Humidity;BMP_temperature;BMP_pressure;BME280_temperature;BME280_humidity;BME280_pressure;Samples;Min_cycle;Max_cycle;Signal;HPM_P1;HPM_P2
2021/09/07 00:00:44;;;;;;;10.45;7.93;;;;;;;13.18;44.53;96313.25;4989853;28;20383;-65
2021/09/07 00:03:10;;;;;;;10.02;7.55;;;;;;;13.13;44.62;96312.13;4986314;28;20134;-65
2021/09/07 00:05:35;;;;;;;14.10;7.50;;;;;;;13.09;44.52;96306.28;4989047;28;20089;-65
2021/09/07 00:08:01;;;;;;;13.10;8.75;;;;;;;13.07;44.58;96308.31;4988851;28;20042;-65
2021/09/07 00:10:26;;;;;;;10.32;8.07;;;;;;;13.02;44.75;96311.50;4975654;28;20421;-65
2021/09/07 00:12:52;;;;;;;11.40;7.88;;;;;;;12.95;44.65;96321.19;4989630;28;20050;-65
2021/09/07 00:15:17;;;;;;;13.02;7.93;;;;;;;12.92;44.79;96317.03;4989119;28;20060;-65
2021/09/07 00:17:43;;;;;;;11.65;8.45;;;;;;;12.92;44.84;96316.22;4988205;28;20303;-65
2021/09/07 00:20:09;;;;;;;12.75;8.13;;;;;;;12.94;44.76;96308.84;4988520;28;20152;-65
2021/09/07 00:22:35;;;;;;;11.38;7.82;;;;;;;12.85;44.85;96302.72;4988629;28;20409;-65
2021/09/07 00:25:00;;;;;;;13.73;7.90;;;;;;;12.83;44.88;96303.91;4989637;28;20026;-65
2021/09/07 00:27:25;;;;;;;9.93;7.38;;;;;;;12.75;44.82;96297.59;4989001;28;20031;-66
2021/09/07 00:29:51;;;;;;;12.57;8.00;;;;;;;12.72;45.31;96303.28;4988900;28;20088;-66
2021/09/07 00:32:16;;;;;;;11.27;8.18;;;;;;;12.73;45.15;96296.97;4989543;28;20038;-66
2021/09/07 00:34:42;;;;;;;12.18;8.23;;;;;;;12.75;44.87;96296.78;4988545;28;20030;-66
2021/09/07 00:37:07;;;;;;;12.50;8.05;;;;;;;12.74;45.27;96303.13;4988749;28;20026;-65
2021/09/07 00:39:33;;;;;;;11.50;7.80;;;;;;;12.71;45.38;96303.47;4986257;28;20035;-66
2021/09/07 00:41:58;;;;;;;11.30;7.80;;;;;;;12.70;45.37;96305.31;4979716;28;20045;-66
2021/09/07 00:44:24;;;;;;;11.10;8.25;;;;;;;12.69;45.14;96306.31;4981579;28;20031;-67
2021/09/07 00:46:54;;;;;;;12.45;8.68;;;;;;;12.65;45.75;96303.16;4979443;28;20038;-66
2021/09/07 00:49:19;;;;;;;12.52;7.95;;;;;;;12.75;45.19;96299.47;4986585;28;20031;-65
2021/09/07 00:51:46;;;;;;;14.20;8.10;;;;;;;12.77;45.10;96303.63;4986318;28;20061;-65
2021/09/07 00:54:11;;;;;;;13.60;8.80;;;;;;;12.73;45.14;96306.78;4969796;28;20042;-66
2021/09/07 00:56:36;;;;;;;11.32;8.02;;;;;;;12.72;45.30;96305.94;4985498;28;20050;-65
2021/09/07 00:59:02;;;;;;;11.18;8.45;;;;;;;12.77;45.03;96305.44;4985184;28;20035;-66
2021/09/07 01:01:28;;;;;;;14.40;8.05;;;;;;;12.83;44.89;96304.75;4973812;28;20400;-65
2021/09/07 01:03:53;;;;;;;11.18;8.40;;;;;;;12.82;44.61;96303.09;4974132;28;20031;-66
2021/09/07 01:06:19;;;;;;;10.63;8.13;;;;;;;12.76;44.47;96306.44;4986870;28;20053;-66
2021/09/07 01:08:44;;;;;;;11.05;7.82;;;;;;;12.72;45.01;96308.63;4966236;28;20492;-66
2021/09/07 01:11:09;;;;;;;12.15;7.78;;;;;;;12.72;44.93;96299.78;4972520;28;20073;-66
2021/09/07 01:13:35;;;;;;;11.48;7.47;;;;;;;12.83;44.63;96310.09;4990625;28;20101;-66
2021/09/07 01:16:01;;;;;;;10.95;8.25;;;;;;;12.91;44.30;96302.03;4990503;28;20361;-65
2021/09/07 01:18:26;;;;;;;11.82;8.30;;;;;;;12.96;44.47;96300.66;4989838;28;20046;-66
2021/09/07 01:20:52;;;;;;;12.27;8.43;;;;;;;12.94;44.53;96303.50;4989119;28;20041;-67
2021/09/07 01:23:17;;;;;;;11.85;8.13;;;;;;;12.97;44.91;96305.00;4988646;28;20522;-66
2021/09/07 01:25:43;;;;;;;14.30;8.43;;;;;;;13.00;44.54;96308.19;4989925;28;20038;-66
2021/09/07 01:28:12;;;;;;;13.50;8.48;;;;;;;13.05;44.77;96302.28;4990052;28;20041;-66
2021/09/07 01:30:38;;;;;;;10.65;7.80;;;;;;;13.12;44.50;96294.41;4989886;28;20039;-66
2021/09/07 01:33:03;;;;;;;11.25;8.43;;;;;;;13.30;44.24;96296.78;4990420;28;20042;-66
2021/09/07 01:35:29;;;;;;;10.95;7.72;;;;;;;13.39;44.20;96294.88;4989827;28;20376;-65
2021/09/07 01:37:54;;;;;;;11.57;8.43;;;;;;;13.47;43.98;96291.31;4988164;28;20166;-65
2021/09/07 01:40:20;;;;;;;10.68;8.13;;;;;;;13.50;44.15;96296.31;4982623;28;20042;-67
2021/09/07 01:42:45;;;;;;;13.65;8.35;;;;;;;13.62;43.86;96299.38;4991779;28;20038;-67
2021/09/07 01:45:11;;;;;;;11.40;8.05;;;;;;;13.65;43.70;96289.16;4992436;28;20030;-64
2021/09/07 01:47:40;;;;;;;11.93;8.13;;;;;;;13.69;44.11;96294.97;4990660;28;20100;-65
2021/09/07 01:50:06;;;;;;;10.75;7.95;;;;;;;13.74;44.02;96297.94;4992649;28;20566;-65
2021/09/07 01:52:32;;;;;;;11.13;8.00;;;;;;;13.76;44.07;96293.22;4992865;28;20026;-66
2021/09/07 01:54:57;;;;;;;11.75;8.25;;;;;;;13.80;44.22;96291.00;4992120;28;20066;-64
2021/09/07 01:57:23;;;;;;;10.82;7.60;;;;;;;13.83;44.55;96291.47;4992369;28;20075;-64
2021/09/07 01:59:48;;;;;;;11.75;7.43;;;;;;;13.97;43.72;96280.19;4992317;28;20100;-66
2021/09/07 02:02:14;;;;;;;11.48;7.82;;;;;;;14.03;43.64;96288.31;4984081;28;20043;-66
2021/09/07 02:04:39;;;;;;;12.50;8.18;;;;;;;14.11;43.55;96287.38;4964978;28;20035;-65
2021/09/07 02:07:04;;;;;;;11.00;7.95;;;;;;;14.12;43.67;96278.34;4983491;28;20045;-65
2021/09/07 02:09:30;;;;;;;10.27;7.75;;;;;;;14.15;43.76;96277.97;4981327;28;20488;-65
2021/09/07 02:11:55;;;;;;;10.80;8.07;;;;;;;14.19;43.74;96283.78;4990486;28;20042;-66
2021/09/07 02:14:21;;;;;;;10.27;7.97;;;;;;;14.25;43.65;96276.88;4988971;28;20030;-67
2021/09/07 02:16:46;;;;;;;11.32;8.70;;;;;;;14.20;43.66;96278.25;4991720;28;20475;-67
2021/09/07 02:19:12;;;;;;;11.85;8.88;;;;;;;14.17;44.28;96275.94;4991709;28;20364;-67
2021/09/07 02:21:37;;;;;;;11.20;8.02;;;;;;;14.19;43.92;96279.28;4992616;28;20042;-66
2021/09/07 02:24:03;;;;;;;11.63;8.52;;;;;;;14.30;43.80;96277.13;4991369;28;20038;-67
2021/09/07 02:26:28;;;;;;;11.32;8.05;;;;;;;14.27;43.75;96281.00;4991810;28;20255;-67
2021/09/07 02:28:54;;;;;;;10.68;7.93;;;;;;;14.31;43.84;96284.16;4991738;28;20053;-67
2021/09/07 02:31:19;;;;;;;10.73;7.78;;;;;;;14.29;43.59;96283.50;4990369;28;20443;-66
2021/09/07 02:33:44;;;;;;;11.15;8.70;;;;;;;14.24;44.03;96285.91;4992118;28;20057;-65
2021/09/07 02:36:10;;;;;;;11.35;8.10;;;;;;;14.18;43.84;96282.13;4991583;28;20503;-67
2021/09/07 02:38:35;;;;;;;12.60;8.50;;;;;;;14.12;44.15;96280.19;4983903;28;20043;-66
2021/09/07 02:41:01;;;;;;;11.43;8.45;;;;;;;14.03;44.35;96279.44;4973319;28;20038;-67
2021/09/07 02:43:27;;;;;;;12.32;8.98;;;;;;;13.92;44.32;96276.22;4987227;28;20399;-65
2021/09/07 02:45:53;;;;;;;11.35;8.65;;;;;;;13.95;44.15;96270.47;4990755;28;20042;-66
2021/09/07 02:48:19;;;;;;;12.23;8.43;;;;;;;13.97;44.27;96274.84;4975169;28;20018;-66
2021/09/07 02:50:44;;;;;;;10.20;7.93;;;;;;;13.95;44.31;96270.47;4992923;28;20073;-67
2021/09/07 02:53:10;;;;;;;11.23;8.02;;;;;;;13.89;44.29;96276.56;4994086;28;20030;-67
2021/09/07 02:55:35;;;;;;;10.75;8.05;;;;;;;13.86;44.48;96268.88;4992579;28;20080;-65
2021/09/07 02:58:01;;;;;;;11.20;8.07;;;;;;;13.79;44.57;96273.28;4995256;28;20121;-67
2021/09/07 03:00:26;;;;;;;11.35;7.75;;;;;;;13.73;44.44;96277.53;4975131;28;20039;-67
2021/09/07 03:02:52;;;;;;;12.30;8.43;;;;;;;13.65;44.65;96278.44;4984092;28;20038;-66
2021/09/07 03:05:18;;;;;;;11.02;8.65;;;;;;;13.57;45.08;96281.19;4990836;28;20061;-65
2021/09/07 03:07:43;;;;;;;12.68;9.55;;;;;;;13.34;46.28;96279.38;4989331;28;20038;-67
2021/09/07 03:10:09;;;;;;;11.55;8.65;;;;;;;13.40;45.99;96275.97;4975184;28;20426;-65
2021/09/07 03:12:35;;;;;;;11.35;8.55;;;;;;;13.47;45.49;96269.91;4988934;28;20578;-66
2021/09/07 03:15:00;;;;;;;11.30;8.07;;;;;;;13.52;45.09;96273.72;4984437;28;20038;-65
2021/09/07 03:17:25;;;;;;;10.50;7.97;;;;;;;13.52;45.26;96267.50;4988307;28;20042;-65
2021/09/07 03:19:51;;;;;;;11.10;7.63;;;;;;;13.55;44.89;96267.16;4990764;28;20046;-65
2021/09/07 03:22:16;;;;;;;10.95;7.95;;;;;;;13.52;45.05;96262.16;4988331;28;20035;-65
2021/09/07 03:24:42;;;;;;;10.68;7.78;;;;;;;13.49;45.05;96262.56;4987420;28;20034;-65
2021/09/07 03:27:07;;;;;;;11.57;7.72;;;;;;;13.38;45.00;96266.47;4971011;28;20050;-66
2021/09/07 03:29:32;;;;;;;11.20;7.53;;;;;;;13.30;44.62;96259.34;4989300;28;20114;-66
2021/09/07 03:31:58;;;;;;;11.07;7.18;;;;;;;13.25;44.99;96267.06;4984810;28;20092;-65
2021/09/07 03:34:23;;;;;;;11.48;8.05;;;;;;;13.15;45.20;96252.13;4987418;28;20449;-66
2021/09/07 03:36:49;;;;;;;10.43;7.70;;;;;;;13.09;45.29;96258.16;4989561;28;20037;-66
2021/09/07 03:39:15;;;;;;;11.15;8.40;;;;;;;13.00;45.67;96254.75;4988648;28;20034;-66
2021/09/07 03:41:40;;;;;;;10.77;8.23;;;;;;;12.98;45.77;96248.69;4980870;28;20038;-66
2021/09/07 03:44:05;;;;;;;12.63;8.80;;;;;;;12.98;45.97;96255.91;4988324;28;20027;-66
2021/09/07 03:46:31;;;;;;;12.20;8.07;;;;;;;12.93;45.89;96262.59;4988641;28;20727;-66
2021/09/07 03:48:56;;;;;;;12.80;8.50;;;;;;;12.87;45.69;96270.47;4988272;28;20036;-66
2021/09/07 03:51:22;;;;;;;11.63;8.50;;;;;;;12.80;45.82;96273.03;4988062;28;20053;-66
2021/09/07 03:53:47;;;;;;;12.90;8.23;;;;;;;12.81;45.02;96280.03;4986762;28;20027;-66
2021/09/07 03:56:14;;;;;;;12.40;8.15;;;;;;;12.79;45.52;96274.03;4988220;28;20046;-67
2021/09/07 03:58:39;;;;;;;14.00;9.05;;;;;;;12.81;45.87;96272.00;4988631;28;20400;-65
2021/09/07 04:01:05;;;;;;;13.52;8.80;;;;;;;12.77;45.94;96273.38;4988722;28;20057;-66
2021/09/07 04:03:30;;;;;;;11.20;8.20;;;;;;;12.73;45.60;96272.06;4964181;28;20034;-66
2021/09/07 04:05:55;;;;;;;14.52;8.60;;;;;;;12.64;45.72;96265.94;4967943;28;20038;-66
2021/09/07 04:08:21;;;;;;;15.18;8.32;;;;;;;12.58;45.92;96262.13;4967596;28;20027;-66
2021/09/07 04:10:46;;;;;;;12.52;8.45;;;;;;;12.56;45.85;96258.81;4977132;28;20053;-66
2021/09/07 04:13:12;;;;;;;11.90;8.65;;;;;;;12.58;45.83;96262.13;4988451;28;20054;-66
2021/09/07 04:15:37;;;;;;;13.32;8.80;;;;;;;12.52;46.09;96265.50;4986805;28;20512;-65
2021/09/07 04:18:03;;;;;;;10.45;8.00;;;;;;;12.47;46.02;96260.69;4987107;28;20038;-65
2021/09/07 04:20:28;;;;;;;11.73;7.82;;;;;;;12.44;46.22;96266.38;4975993;28;20044;-65
2021/09/07 04:22:54;;;;;;;11.77;8.15;;;;;;;12.41;45.96;96272.88;4983056;28;20034;-65
2021/09/07 04:25:19;;;;;;;11.80;8.32;;;;;;;12.41;46.05;96272.06;4987291;28;20104;-65
2021/09/07 04:27:44;;;;;;;11.32;8.20;;;;;;;12.38;45.75;96269.75;4986760;28;20068;-66
2021/09/07 04:30:11;;;;;;;11.77;7.90;;;;;;;12.34;46.29;96271.09;4986896;28;20031;-66
2021/09/07 04:32:36;;;;;;;10.43;7.78;;;;;;;12.31;45.82;96271.44;4984711;28;20113;-66
2021/09/07 04:35:03;;;;;;;11.48;8.38;;;;;;;12.27;46.27;96261.09;4985914;28;20454;-66
2021/09/07 04:37:28;;;;;;;10.77;7.50;;;;;;;12.30;46.03;96262.59;4970231;28;20060;-65
2021/09/07 04:39:54;;;;;;;13.35;8.32;;;;;;;12.26;46.01;96258.59;4978080;28;20043;-65
2021/09/07 04:42:19;;;;;;;11.55;7.82;;;;;;;12.27;46.09;96262.94;4973059;28;20043;-66
2021/09/07 04:44:45;;;;;;;13.40;8.52;;;;;;;12.26;46.12;96264.78;4963309;28;20041;-65
2021/09/07 04:47:10;;;;;;;11.80;7.78;;;;;;;12.24;46.18;96257.97;4978771;28;20370;-66
2021/09/07 04:49:36;;;;;;;11.90;7.97;;;;;;;12.27;45.72;96262.94;4990793;28;20034;-66
2021/09/07 04:52:02;;;;;;;12.10;8.70;;;;;;;12.25;46.38;96263.13;4990752;28;20042;-65
2021/09/07 04:54:27;;;;;;;11.85;8.63;;;;;;;12.26;46.27;96269.28;4990184;28;20149;-65
2021/09/07 04:56:53;;;;;;;14.65;8.77;;;;;;;12.26;46.40;96266.59;4989956;28;20448;-67
2021/09/07 04:59:18;;;;;;;11.93;8.35;;;;;;;12.28;46.17;96261.94;4990380;28;20514;-66
2021/09/07 05:01:43;;;;;;;11.23;7.80;;;;;;;12.29;46.19;96255.59;4989990;28;20080;-66
2021/09/07 05:04:09;;;;;;;11.93;7.47;;;;;;;12.33;45.75;96264.91;4990206;28;20723;-66
2021/09/07 05:06:35;;;;;;;11.45;8.73;;;;;;;12.33;45.87;96258.72;4974705;28;20522;-66
2021/09/07 05:09:01;;;;;;;14.80;8.25;;;;;;;12.31;45.76;96266.94;4965194;28;20109;-66
2021/09/07 05:11:26;;;;;;;13.90;9.18;;;;;;;12.33;46.56;96266.75;4980002;28;20038;-66
2021/09/07 05:13:51;;;;;;;11.32;8.27;;;;;;;12.37;46.24;96271.56;4983822;28;20038;-66
2021/09/07 05:16:17;;;;;;;11.07;7.90;;;;;;;12.44;46.45;96268.22;4967236;28;20066;-66
2021/09/07 05:18:42;;;;;;;13.52;8.57;;;;;;;12.51;46.34;96261.19;4966970;28;20046;-66
2021/09/07 05:21:08;;;;;;;11.02;7.38;;;;;;;12.59;45.98;96263.81;4966757;28;20484;-66
2021/09/07 05:23:33;;;;;;;10.73;7.93;;;;;;;12.67;45.87;96266.44;4969603;28;20516;-66
2021/09/07 05:25:58;;;;;;;11.43;8.00;;;;;;;12.71;45.92;96266.91;4971820;28;20071;-66
2021/09/07 05:28:24;;;;;;;10.98;8.25;;;;;;;12.78;46.42;96275.03;4969015;28;20113;-65
2021/09/07 05:30:49;;;;;;;10.45;7.55;;;;;;;12.87;46.02;96275.81;4976628;28;20142;-65
2021/09/07 05:33:15;;;;;;;13.60;8.07;;;;;;;12.93;45.95;96273.28;4971223;28;20034;-66
2021/09/07 05:35:40;;;;;;;12.07;8.65;;;;;;;12.96;45.78;96280.13;4970886;28;20576;-65
2021/09/07 05:38:06;;;;;;;10.57;8.05;;;;;;;13.06;45.52;96277.25;4977834;28;20114;-65
2021/09/07 05:40:31;;;;;;;12.68;8.20;;;;;;;13.20;45.44;96277.47;4976592;28;20457;-66
2021/09/07 05:42:57;;;;;;;11.20;8.13;;;;;;;13.41;45.06;96277.66;4975530;28;20127;-66
2021/09/07 05:45:22;;;;;;;11.80;8.40;;;;;;;13.57;44.82;96278.53;4971532;28;20037;-65
2021/09/07 05:47:48;;;;;;;16.92;11.85;;;;;;;13.51;46.02;96287.25;4971116;28;20103;-65
2021/09/07 05:50:14;;;;;;;17.85;13.80;;;;;;;13.28;47.95;96280.09;4972267;28;20112;-65
2021/09/07 05:52:43;;;;;;;18.02;14.20;;;;;;;13.29;47.92;96287.94;4974379;28;20087;-65
2021/09/07 05:55:09;;;;;;;18.33;14.45;;;;;;;13.36;47.84;96282.69;4973775;28;20110;-65
2021/09/07 05:57:34;;;;;;;20.23;14.80;;;;;;;13.40;47.99;96284.00;4964935;28;20099;-65
2021/09/07 06:00:00;;;;;;;19.58;15.00;;;;;;;13.50;47.74;96285.59;4985975;28;20050;-65
2021/09/07 06:02:25;;;;;;;22.38;15.77;;;;;;;13.60;47.48;96288.03;4975414;28;20038;-66
2021/09/07 06:04:51;;;;;;;22.40;15.85;;;;;;;13.72;47.08;96293.75;4988644;28;20031;-65
2021/09/07 06:07:17;;;;;;;22.27;17.10;;;;;;;13.79;46.95;96292.88;4984803;28;20061;-65
2021/09/07 06:09:43;;;;;;;23.27;17.27;;;;;;;13.91;46.44;96295.94;4981093;28;20037;-65
2021/09/07 06:12:08;;;;;;;21.13;16.85;;;;;;;14.04;46.00;96295.31;4986438;28;20391;-65
2021/09/07 06:14:34;;;;;;;22.73;16.02;;;;;;;14.17;45.85;96297.34;4982340;28;20446;-65
2021/09/07 06:17:00;;;;;;;22.55;16.08;;;;;;;14.27;45.44;96301.59;4986755;28;20085;-65
2021/09/07 06:19:25;;;;;;;19.50;16.05;;;;;;;14.41;45.28;96303.44;4998274;28;20169;-65
2021/09/07 06:21:51;;;;;;;19.23;14.60;;;;;;;14.56;45.10;96305.28;4993651;28;21121;-66
2021/09/07 06:24:16;;;;;;;17.92;14.45;;;;;;;14.66;44.62;96297.78;4986445;28;20034;-65
2021/09/07 06:26:42;;;;;;;18.67;14.27;;;;;;;14.78;44.52;96302.69;4985218;28;20154;-65
2021/09/07 06:29:07;;;;;;;17.65;13.70;;;;;;;14.95;43.89;96309.50;4984692;28;20030;-65
2021/09/07 06:31:33;;;;;;;18.70;13.45;;;;;;;15.08;44.31;96307.97;4972554;28;20103;-65
2021/09/07 06:33:58;;;;;;;15.90;12.55;;;;;;;15.25;43.48;96303.19;4966376;28;20101;-65
2021/09/07 06:36:24;;;;;;;17.88;12.77;;;;;;;15.36;43.06;96308.06;4970399;28;20824;-65
2021/09/07 06:38:49;;;;;;;15.68;12.32;;;;;;;15.49;42.94;96303.81;4966966;28;20455;-65
2021/09/07 06:41:15;;;;;;;15.57;12.80;;;;;;;15.72;42.47;96302.81;4967016;28;20087;-65
2021/09/07 06:43:41;;;;;;;17.33;12.43;;;;;;;15.99;41.90;96309.22;4979100;28;20210;-65
2021/09/07 06:46:07;;;;;;;17.52;12.98;;;;;;;16.18;41.64;96314.91;4969983;28;20115;-67
2021/09/07 06:48:32;;;;;;;16.05;12.20;;;;;;;16.38;41.12;96314.22;4984380;28;20161;-65
2021/09/07 06:50:57;;;;;;;14.65;11.93;;;;;;;16.59;41.05;96307.91;4983690;28;20519;-65
2021/09/07 06:53:23;;;;;;;13.63;11.32;;;;;;;16.78;40.65;96313.59;4983474;28;20026;-65
2021/09/07 06:55:48;;;;;;;14.73;11.57;;;;;;;16.97;40.37;96313.88;4981822;28;20050;-65
2021/09/07 06:58:14;;;;;;;14.80;11.38;;;;;;;17.11;40.21;96318.28;4974885;28;20034;-65
2021/09/07 07:00:39;;;;;;;18.55;12.48;;;;;;;17.29;39.98;96322.25;4983424;28;20082;-65
2021/09/07 07:03:05;;;;;;;19.75;14.70;;;;;;;17.48;39.75;96317.94;4983057;28;20041;-65
2021/09/07 07:05:30;;;;;;;19.20;15.00;;;;;;;17.74;38.66;96312.78;4982441;28;20396;-65
2021/09/07 07:07:56;;;;;;;19.88;14.63;;;;;;;17.97;38.63;96312.38;4983168;28;20137;-65
2021/09/07 07:10:21;;;;;;;16.27;12.65;;;;;;;18.20;37.74;96311.09;4983152;28;20106;-65
2021/09/07 07:12:47;;;;;;;20.48;14.95;;;;;;;18.41;37.33;96314.56;4982715;28;20209;-65
2021/09/07 07:15:12;;;;;;;16.92;12.50;;;;;;;18.73;37.54;96316.59;4982864;28;20038;-64
2021/09/07 07:17:37;;;;;;;18.02;13.20;;;;;;;18.98;36.23;96321.25;4982042;28;20442;-64
2021/09/07 07:20:03;;;;;;;20.10;15.63;;;;;;;19.18;35.94;96313.06;4963080;28;20489;-64
2021/09/07 07:22:29;;;;;;;16.95;12.48;;;;;;;19.52;35.73;96312.88;4962902;28;20049;-65
2021/09/07 07:24:54;;;;;;;19.00;13.80;;;;;;;19.67;34.98;96313.38;4963300;28;20491;-64
2021/09/07 07:27:20;;;;;;;17.65;13.80;;;;;;;19.83;35.56;96317.41;4961530;28;20069;-65
2021/09/07 07:29:45;;;;;;;17.98;12.48;;;;;;;20.02;34.66;96309.34;4962373;28;20131;-65
2021/09/07 07:32:10;;;;;;;19.45;13.70;;;;;;;20.14;34.00;96316.75;4962961;28;20048;-65
2021/09/07 07:34:36;;;;;;;16.35;12.02;;;;;;;20.26;33.64;96314.16;4963137;28;20580;-64
2021/09/07 07:37:04;;;;;;;15.05;12.13;;;;;;;20.40;33.04;96312.97;4963025;28;20049;-64
2021/09/07 07:39:30;;;;;;;21.33;13.32;;;;;;;20.48;33.22;96318.06;4961642;28;20124;-63
2021/09/07 07:41:55;;;;;;;15.65;12.10;;;;;;;20.72;32.91;96322.81;4951538;28;20050;-64
2021/09/07 07:44:21;;;;;;;19.77;13.40;;;;;;;20.84;32.39;96321.00;4957159;28;20099;-64
2021/09/07 07:46:46;;;;;;;18.20;13.73;;;;;;;20.94;32.03;96317.75;4963043;28;20144;-64
2021/09/07 07:49:11;;;;;;;16.10;12.00;;;;;;;21.26;32.13;96311.28;4960692;28;20069;-64
2021/09/07 07:51:37;;;;;;;21.35;16.27;;;;;;;21.25;31.80;96309.66;4963068;28;20213;-64
2021/09/07 07:54:05;;;;;;;17.40;13.25;;;;;;;21.48;30.89;96317.03;4963055;28;20039;-64
2021/09/07 07:56:30;;;;;;;18.83;13.43;;;;;;;21.60;30.80;96313.53;4961804;28;20535;-64
2021/09/07 07:58:56;;;;;;;15.07;10.77;;;;;;;22.02;29.19;96315.38;4969809;28;20046;-64
2021/09/07 08:01:21;;;;;;;13.45;10.43;;;;;;;22.00;29.71;96320.22;4980697;28;20033;-65
2021/09/07 08:03:46;;;;;;;13.95;10.55;;;;;;;21.88;28.83;96322.88;4981255;28;20034;-65
2021/09/07 08:06:13;;;;;;;15.45;11.93;;;;;;;21.93;30.16;96327.63;4981344;28;20096;-65
2021/09/07 08:08:38;;;;;;;14.88;10.98;;;;;;;22.09;29.35;96321.50;4981454;28;20078;-65
2021/09/07 08:11:04;;;;;;;13.48;10.93;;;;;;;22.47;28.80;96323.97;4981798;28;20502;-65
2021/09/07 08:13:29;;;;;;;19.83;13.73;;;;;;;22.70;28.67;96327.75;4982303;28;20054;-65
2021/09/07 08:15:54;;;;;;;17.65;11.10;;;;;;;23.04;27.74;96333.28;4982650;28;20053;-65
2021/09/07 08:18:20;;;;;;;14.07;10.40;;;;;;;23.39;27.54;96331.53;4983811;28;20062;-65
2021/09/07 08:20:49;;;;;;;9.80;7.32;;;;;;;23.76;25.77;96327.59;4982272;28;20069;-66
2021/09/07 08:23:15;;;;;;;11.07;9.05;;;;;;;23.58;25.57;96332.16;4982412;28;20478;-66
2021/09/07 08:25:40;;;;;;;13.07;10.52;;;;;;;23.89;26.44;96331.88;4981811;28;20394;-65
2021/09/07 08:28:06;;;;;;;9.63;7.40;;;;;;;24.10;24.16;96333.00;4980474;28;20189;-65
2021/09/07 08:30:31;;;;;;;16.65;11.68;;;;;;;24.07;26.14;96328.09;4980120;28;20058;-65
2021/09/07 08:32:57;;;;;;;12.88;10.38;;;;;;;24.12;26.05;96330.88;4981176;28;20433;-65
2021/09/07 08:35:22;;;;;;;14.25;11.52;;;;;;;23.97;26.12;96336.91;4981236;28;20065;-65
2021/09/07 08:37:47;;;;;;;10.57;7.93;;;;;;;24.50;24.57;96330.34;4981225;28;20042;-65
2021/09/07 08:40:13;;;;;;;14.80;11.00;;;;;;;24.61;24.19;96331.31;4975345;28;20046;-65
2021/09/07 08:42:39;;;;;;;10.00;6.22;;;;;;;24.80;21.99;96334.53;4978587;28;20042;-65
2021/09/07 08:45:05;;;;;;;10.70;8.67;;;;;;;24.73;24.16;96345.63;4963808;28;20022;-65
2021/09/07 08:47:31;;;;;;;8.98;7.75;;;;;;;24.73;22.84;96340.19;4979684;28;20103;-65
2021/09/07 08:49:57;;;;;;;15.00;12.05;;;;;;;24.74;24.89;96341.00;4980400;28;20153;-65
2021/09/07 08:52:23;;;;;;;11.03;8.17;;;;;;;24.99;23.21;96336.97;4981766;28;20029;-65
2021/09/07 08:54:48;;;;;;;15.03;11.67;;;;;;;25.12;23.36;96341.22;4980387;28;20113;-65
2021/09/07 08:57:14;;;;;;;18.93;16.40;;;;;;;25.12;24.63;96347.47;4981579;28;20042;-65
2021/09/07 08:59:39;;;;;;;13.90;10.47;;;;;;;25.12;22.65;96344.75;4981745;28;20050;-65
2021/09/07 09:02:12;;;;;;;12.87;11.03;;;;;;;25.41;22.75;96339.06;4963801;28;20038;-65
2021/09/07 09:04:38;;;;;;;19.27;14.43;;;;;;;25.39;21.77;96341.22;4981872;28;20582;-65
2021/09/07 09:07:03;;;;;;;12.07;10.27;;;;;;;25.52;23.69;96339.22;4981606;28;20102;-65
2021/09/07 09:09:38;;;;;;;18.70;15.77;;;;;;;25.16;22.88;96339.63;4981155;28;20090;-65
2021/09/07 09:12:07;;;;;;;18.40;16.13;;;;;;;25.09;23.31;96337.91;4979558;28;20118;-65
2021/09/07 09:14:40;;;;;;;21.15;17.42;;;;;;;25.35;22.22;96345.53;4981407;28;20157;-65
2021/09/07 09:17:17;;;;;;;16.77;13.80;;;;;;;25.52;24.36;96350.13;4963997;28;20609;-65
2021/09/07 09:19:49;;;;;;;14.82;12.48;;;;;;;25.76;23.09;96344.31;4978535;28;20034;-65
2021/09/07 09:22:14;;;;;;;13.45;10.98;;;;;;;25.90;21.08;96340.06;4981148;28;20093;-65
2021/09/07 09:24:40;;;;;;;12.57;8.80;;;;;;;25.95;20.84;96345.59;4981046;28;20042;-65
2021/09/07 09:27:05;;;;;;;9.33;7.90;;;;;;;26.11;21.38;96348.47;4979458;28;20034;-65
2021/09/07 09:29:31;;;;;;;12.70;7.60;;;;;;;26.16;19.88;96353.94;4982031;28;20034;-65
2021/09/07 09:32:07;;;;;;;18.63;13.80;;;;;;;25.93;20.92;96352.38;4977508;28;20103;-65
2021/09/07 09:34:36;;;;;;;14.85;11.00;;;;;;;26.05;22.16;96353.06;4984021;28;20594;-65
2021/09/07 09:37:03;;;;;;;10.50;6.80;;;;;;;26.22;21.67;96350.19;4985188;28;20045;-65
2021/09/07 09:39:55;;;;;;;11.60;9.50;;;;;;;26.44;22.02;96349.22;4983592;28;20694;-64
2021/09/07 09:42:31;;;;;;;17.23;13.10;;;;;;;26.55;22.08;96347.38;4978619;28;20129;-64
2021/09/07 09:45:04;;;;;;;13.75;10.02;;;;;;;26.69;21.72;96353.22;4985362;28;20057;-65
2021/09/07 09:47:45;;;;;;;10.85;9.63;;;;;;;26.93;23.00;96349.22;4984294;28;20507;-65
2021/09/07 09:50:12;;;;;;;12.13;8.68;;;;;;;27.09;21.72;96352.81;4985119;28;20030;-64
2021/09/07 09:52:38;;;;;;;;;;;;;;;27.15;21.83;96357.22;4984860;28;20121;-64
2021/09/07 09:55:04;;;;;;;17.30;15.50;;;;;;;27.14;22.14;96355.59;4999596;28;20008;-64
2021/09/07 09:57:30;;;;;;;15.23;11.73;;;;;;;27.03;21.65;96362.09;4984276;28;20488;-64
2021/09/07 09:59:56;;;;;;;17.13;13.02;;;;;;;27.19;21.73;96357.53;4983045;28;20042;-64
2021/09/07 10:02:21;;;;;;;17.80;14.57;;;;;;;27.30;21.45;96358.38;4983340;28;20038;-64
2021/09/07 10:04:47;;;;;;;17.83;15.33;;;;;;;27.16;20.70;96358.91;4984809;28;20046;-64
2021/09/07 10:07:13;;;;;;;15.13;10.80;;;;;;;26.92;21.03;96359.28;4982859;28;20038;-64
2021/09/07 10:09:40;;;;;;;11.40;8.75;;;;;;;27.27;21.25;96359.75;4984607;28;20042;-64
2021/09/07 10:12:14;;;;;;;14.18;12.60;;;;;;;27.34;20.30;96352.13;4971967;28;20077;-64
2021/09/07 10:14:43;;;;;;;13.15;9.55;;;;;;;27.59;21.32;96353.25;4967075;28;20586;-64
2021/09/07 10:17:30;;;;;;;14.18;10.45;;;;;;;27.77;20.76;96345.66;4983034;28;20480;-65
2021/09/07 10:20:01;;;;;;;11.77;9.48;;;;;;;27.94;18.98;96350.00;4982226;28;20048;-65
2021/09/07 10:25:49;;;;;;;11.75;9.73;;;;;;;28.10;19.49;96339.88;4955302;28;20760;-65
2021/09/07 10:28:41;;;;;;;9.43;7.55;;;;;;;28.11;17.34;96338.78;4984143;28;20038;-65
2021/09/07 10:31:13;;;;;;;12.40;7.90;;;;;;;28.16;19.34;96341.53;4983768;28;20690;-65
2021/09/07 10:33:45;;;;;;;12.50;9.95;;;;;;;27.97;20.51;96330.31;4982153;28;20134;-65
2021/09/07 10:36:22;;;;;;;12.57;10.05;;;;;;;28.03;19.86;96332.78;4982740;28;20406;-64
2021/09/07 10:38:58;;;;;;;13.45;10.52;;;;;;;28.14;21.39;96330.84;4971498;28;20050;-64
2021/09/07 10:41:29;;;;;;;17.85;11.27;;;;;;;28.37;21.35;96331.38;4982786;28;20048;-64
2021/09/07 10:44:08;;;;;;;19.58;14.77;;;;;;;28.54;21.13;96330.25;4983509;28;20037;-64
2021/09/07 10:46:40;;;;;;;10.32;8.10;;;;;;;28.62;20.49;96315.16;4981908;28;20050;-65
2021/09/07 10:49:46;;;;;;;12.88;9.73;;;;;;;28.84;20.90;96328.53;4983726;28;20037;-65
2021/09/07 10:52:19;;;;;;;20.35;15.48;;;;;;;28.79;20.16;96325.81;5000028;28;20590;-65
2021/09/07 10:55:09;;;;;;;15.10;9.35;;;;;;;28.73;20.69;96322.28;4984976;28;20062;-66
2021/09/07 10:57:35;;;;;;;13.02;10.07;;;;;;;28.95;19.93;96314.81;4982957;28;20455;-67
2021/09/07 11:00:03;;;;;;;12.13;10.37;;;;;;;28.54;21.26;96314.66;4983323;28;20284;-67
2021/09/07 11:02:40;;;;;;;14.45;12.38;;;;;;;28.78;20.67;96308.56;4983286;28;20144;-67
2021/09/07 11:05:07;;;;;;;14.55;12.07;;;;;;;28.92;21.06;96307.94;4983921;28;20038;-67
2021/09/07 11:07:32;;;;;;;8.13;6.40;;;;;;;29.35;20.36;96312.94;4981257;28;20077;-67
2021/09/07 11:09:58;;;;;;;11.37;9.40;;;;;;;29.53;19.61;96316.09;4983415;28;20512;-67
2021/09/07 11:12:27;;;;;;;19.63;17.53;;;;;;;29.24;20.31;96308.63;4983429;28;20054;-67
2021/09/07 11:15:13;;;;;;;17.20;15.40;;;;;;;28.95;20.15;96303.84;4983131;28;20035;-67
2021/09/07 11:17:52;;;;;;;17.00;14.10;;;;;;;29.07;20.48;96306.22;4982500;28;20507;-67
2021/09/07 11:20:18;;;;;;;10.05;8.13;;;;;;;29.61;19.45;96309.22;4982940;28;20030;-67
2021/09/07 11:22:44;;;;;;;14.52;10.50;;;;;;;30.03;17.75;96302.28;4983112;28;20049;-67